CYVMCYXP

Guest
Details From CYVM - QIKIQTARJUAQ
To CYXP - Pangnirtung
Flight Number -
Tags generated
Created
Modified
Stats Distance 95 nm / 176 km
Max Altitude 300 ft / 91 m
Waypoints 3
Social Downloads 0
Likes 0
Share VATSIM

Download

Looking for another format? Having issues loading an existing format? Contact us
Advertisement - Login to hide

Notes

Basic altitude profile: - Ascent Rate: 2500ft/min - Ascent Speed: 250kts - Cruise Altitude: 35000ft - Cruise Speed: 420kts - Descent Rate: 1500ft/min - Descent Speed: 250kts Options: - Use NATs: yes - Use PACOTS: yes - Use low airways: yes - Use high airways: yes

Route

CYVM YJI CYXP

ID Type Via Altitude Latitude Longitude Leg Dist Tot Dist Heading (true) Name
O CYVM APT - 0 ft / 0 m 67.54624˚ -64.03071˚ - 0 nm - QIKIQTARJUAQ
YJI NDB - 300 ft / 91 m 67.56194˚ -64.01750˚ 0 nm 0 nm 18° / 18° BROUGHTON NDB
O CYXP APT - 0 ft / 0 m 66.14494˚ -65.71313˚ 94 nm 95 nm 206° / 204° Pangnirtung

Altitude Profile

Advertisement - Login to hide

CYVM

Details ICAO CYVM (YVM)
Name QIKIQTARJUAQ
Region Canada
Timezone Unknown (UTC+0.0)
Stats Elevation 21 ft / 6 m (AMSL)
Location 67.546236° -64.030706°
Runways 1
Magnetic Variation 32.152° W

METAR

CYVM 111900Z 20007KT 15SM IC OVC046 M16/M17 A2927 RMK SC8 SLP913

Decode

TAF

TAF CYVM 111838Z 1119/1207 VRB03KT P6SM FEW012 BKN040 TEMPO 1119/1207 4SM -SN SCT012 BKN030 BECMG 1122/1124 32010KT RMK NXT FCST BY 120100Z

Decode

Departure Runways

ID Width Length Bearing (true) Bearing (mag) Surface Threshold Offset Overrun Length
03T 100 ft / 30 m 3,741 ft / 1,140 m 33.20° 65.35° Gravel 0 ft / 0 m 0 ft / 0 m
21T 100 ft / 30 m 3,741 ft / 1,140 m 213.21° 245.36° Gravel 0 ft / 0 m 0 ft / 0 m

CYXP

Details ICAO CYXP (YXP)
Name Pangnirtung
Region Canada
Timezone Unknown (UTC+0.0)
Stats Elevation 73 ft / 22 m (AMSL)
Location 66.144940° -65.713130°
Runways 1
Magnetic Variation 30.538° W

METAR

CYXP 111900Z 22003KT 15SM FEW015 FEW020 M17/M19 A2930 RMK SF1CU1 SF TR CU TR SLP925

Decode

TAF

TAF CYXP 111838Z 1119/1123 VRB03KT P6SM FEW020 SCT030 TEMPO 1119/1123 5SM -SN BKN020 RMK NXT FCST WILL BE ISSUED AT 121345Z

Decode

Destination Runways

ID Width Length Bearing (true) Bearing (mag) Surface Threshold Offset Overrun Length
06T 98 ft / 30 m 2,919 ft / 890 m 60.95° 91.49° Gravel 0 ft / 0 m 0 ft / 0 m
24T 98 ft / 30 m 2,919 ft / 890 m 240.97° 271.51° Gravel 0 ft / 0 m 0 ft / 0 m